createdAt,value
2019-01-30T00:02:10.838Z,-2.35
2019-01-30T00:04:41.566Z,-2.29
2019-01-30T00:07:12.390Z,-2.25
2019-01-30T00:09:44.383Z,-2.21
2019-01-30T00:12:15.273Z,-2.11
2019-01-30T00:14:46.353Z,-2.08
2019-01-30T00:17:16.706Z,-2.07
2019-01-30T00:19:48.458Z,-2.05
2019-01-30T00:22:19.141Z,-2.01
2019-01-30T00:24:50.078Z,-1.92
2019-01-30T00:27:20.909Z,-1.86
2019-01-30T00:29:51.703Z,-1.81
2019-01-30T00:32:51.785Z,-1.75
2019-01-30T00:35:22.449Z,-1.66
2019-01-30T00:37:53.266Z,-1.63
2019-01-30T00:40:25.003Z,-1.57
2019-01-30T00:42:56.151Z,-1.52
2019-01-30T00:45:26.893Z,-1.45
2019-01-30T00:47:58.103Z,-1.38
2019-01-30T00:50:29.182Z,-1.34
2019-01-30T00:53:00.068Z,-1.33
2019-01-30T00:55:31.407Z,-1.34
2019-01-30T00:58:02.092Z,-1.33
2019-01-30T01:01:07.431Z,-1.30
2019-01-30T01:03:38.257Z,-1.27
2019-01-30T01:06:09.729Z,-1.20
2019-01-30T01:08:40.122Z,-0.99
2019-01-30T01:11:12.017Z,-1.00
2019-01-30T01:13:43.373Z,-1.07
2019-01-30T01:16:14.001Z,-1.06
2019-01-30T01:18:59.217Z,-1.02
2019-01-30T01:21:30.637Z,-0.96
2019-01-30T01:24:01.651Z,-0.94
2019-01-30T01:26:32.924Z,-0.93
2019-01-30T01:29:03.729Z,-0.84
2019-01-30T01:31:34.450Z,-0.79
2019-01-30T01:34:05.371Z,-0.73
2019-01-30T01:36:36.050Z,-0.72
2019-01-30T01:39:09.611Z,-0.65
2019-01-30T01:41:40.370Z,-0.63
2019-01-30T01:44:10.694Z,-0.65
2019-01-30T01:46:41.366Z,-0.55
2019-01-30T01:49:12.181Z,-0.55
2019-01-30T01:52:03.705Z,-0.54
2019-01-30T01:54:36.217Z,-0.51
2019-01-30T01:57:06.887Z,-0.49
2019-01-30T01:59:37.724Z,-0.48
2019-01-30T03:01:58.147Z,-0.49
2019-01-30T03:04:29.185Z,-0.44
2019-01-30T03:06:59.925Z,-0.43
2019-01-30T03:09:30.949Z,-0.39
2019-01-30T03:12:02.315Z,-0.33
2019-01-30T03:14:33.633Z,-0.32
2019-01-30T03:17:04.517Z,-0.28
2019-01-30T03:19:35.212Z,-0.37
2019-01-30T03:22:05.516Z,-0.31
2019-01-30T03:24:40.772Z,-0.26
2019-01-30T03:27:12.514Z,-0.33
2019-01-30T03:29:43.344Z,-0.26
2019-01-30T03:32:14.511Z,-0.21
2019-01-30T03:34:45.815Z,-0.20
2019-01-30T03:37:16.552Z,-0.24
2019-01-30T03:39:47.689Z,-0.10
2019-01-30T03:42:18.194Z,-0.12
2019-01-30T03:44:49.206Z,-0.15
2019-01-30T03:47:19.940Z,-0.26
2019-01-30T03:49:50.296Z,-0.28
2019-01-30T03:52:31.730Z,-0.28
2019-01-30T03:55:03.385Z,-0.24
2019-01-30T03:57:34.124Z,-0.28
2019-01-30T04:00:06.913Z,-0.26
2019-01-30T04:02:38.716Z,-0.25
2019-01-30T04:05:10.486Z,-0.27
2019-01-30T04:07:41.222Z,-0.26
2019-01-30T04:10:15.555Z,-0.18
2019-01-30T04:12:45.902Z,-0.18
2019-01-30T04:15:17.208Z,-0.24
2019-01-30T04:17:48.822Z,-0.24
2019-01-30T04:20:22.484Z,-0.26
2019-01-30T04:22:53.458Z,-0.26
2019-01-30T04:25:30.736Z,-0.20
2019-01-30T04:28:01.891Z,-0.12
2019-01-30T04:30:33.010Z,-0.17
2019-01-30T04:33:03.315Z,-0.16
2019-01-30T04:35:34.000Z,-0.24
2019-01-30T04:38:05.414Z,-0.25
2019-01-30T04:40:36.481Z,-0.25
2019-01-30T04:43:08.242Z,-0.27
2019-01-30T04:45:38.957Z,-0.29
2019-01-30T04:48:09.697Z,-0.26
2019-01-30T04:50:41.464Z,-0.28
2019-01-30T04:53:12.523Z,-0.29
2019-01-30T04:55:43.941Z,-0.23
2019-01-30T04:58:50.409Z,-0.23
2019-01-30T05:01:21.051Z,-0.21
2019-01-30T05:03:52.129Z,-0.17
2019-01-30T05:06:23.326Z,-0.29
2019-01-30T05:08:55.990Z,-0.17
2019-01-30T05:11:27.515Z,-0.08
2019-01-30T05:14:01.438Z,-0.22
2019-01-30T05:16:32.288Z,-0.27
2019-01-30T05:19:02.940Z,-0.24
2019-01-30T05:21:33.698Z,-0.15
2019-01-30T05:24:05.319Z,-0.16
2019-01-30T05:26:36.631Z,-0.19
2019-01-30T05:29:08.436Z,-0.20
2019-01-30T05:31:39.530Z,-0.19
2019-01-30T05:34:10.805Z,-0.18
2019-01-30T05:36:41.759Z,-0.06
2019-01-30T05:39:12.531Z,-0.04
2019-01-30T05:41:47.503Z,-0.04
2019-01-30T05:45:22.410Z,-0.03
2019-01-30T05:47:53.408Z,-0.09
2019-01-30T05:50:25.223Z,-0.06
2019-01-30T05:52:56.849Z,0.00
2019-01-30T05:55:27.534Z,0.03
2019-01-30T05:58:00.103Z,-0.01
2019-01-30T06:01:10.166Z,0.00
2019-01-30T06:04:28.832Z,-0.01
2019-01-30T06:06:59.561Z,-0.02
2019-01-30T06:09:30.479Z,0.02
2019-01-30T06:12:01.976Z,-0.03
2019-01-30T06:14:32.992Z,-0.06
2019-01-30T06:17:03.685Z,0.04
2019-01-30T06:19:35.338Z,0.03
2019-01-30T06:22:06.321Z,0.05
2019-01-30T06:24:37.793Z,0.08
2019-01-30T06:27:08.504Z,0.03
2019-01-30T06:29:39.251Z,0.01
2019-01-30T06:32:09.963Z,0.03
2019-01-30T06:34:40.598Z,0.07
2019-01-30T06:37:11.630Z,0.24
2019-01-30T06:39:42.303Z,0.18
2019-01-30T06:43:07.068Z,0.11
2019-01-30T06:45:38.093Z,0.16
2019-01-30T06:48:08.845Z,0.04
2019-01-30T06:50:39.914Z,0.05
2019-01-30T06:53:10.524Z,0.06
2019-01-30T06:55:41.562Z,0.02
2019-01-30T06:58:11.908Z,0.03
2019-01-30T07:00:42.629Z,0.09
2019-01-30T07:03:13.379Z,0.15
2019-01-30T07:05:46.466Z,0.27
2019-01-30T07:08:17.073Z,0.25
2019-01-30T07:10:48.493Z,0.30
2019-01-30T07:13:19.178Z,0.35
2019-01-30T07:15:49.806Z,0.42
2019-01-30T07:18:20.457Z,0.45
2019-01-30T07:20:50.778Z,0.57
2019-01-30T07:23:21.069Z,0.64
2019-01-30T07:25:52.659Z,0.60
2019-01-30T07:28:23.252Z,0.55
2019-01-30T07:30:53.856Z,0.63
2019-01-30T07:33:24.103Z,0.79
2019-01-30T07:35:55.154Z,0.82
2019-01-30T07:38:25.476Z,0.86
2019-01-30T07:40:56.096Z,0.89
2019-01-30T07:43:27.111Z,0.96
2019-01-30T07:46:12.758Z,1.24
2019-01-30T07:48:43.841Z,2.20
2019-01-30T07:51:15.950Z,2.80
2019-01-30T07:53:46.606Z,3.06
2019-01-30T07:56:17.629Z,3.29
2019-01-30T07:58:48.617Z,3.58
2019-01-30T08:01:22.036Z,3.62
2019-01-30T08:03:52.147Z,3.67
2019-01-30T08:06:22.842Z,3.85
2019-01-30T08:08:53.724Z,3.95
2019-01-30T08:11:24.822Z,4.12
2019-01-30T08:14:24.090Z,4.22
2019-01-30T08:16:54.798Z,4.37
2019-01-30T08:19:25.553Z,4.50
2019-01-30T08:21:56.451Z,4.67
2019-01-30T08:24:28.171Z,4.61
2019-01-30T08:26:58.977Z,4.93
2019-01-30T08:29:29.631Z,4.89
2019-01-30T08:32:00.690Z,5.22
2019-01-30T08:34:31.355Z,5.00
2019-01-30T08:37:03.219Z,5.01
2019-01-30T08:39:34.657Z,5.07
2019-01-30T08:42:04.978Z,5.21
2019-01-30T08:44:36.219Z,5.34
2019-01-30T08:47:07.383Z,5.27
2019-01-30T08:49:40.324Z,5.23
2019-01-30T08:52:10.793Z,5.29
2019-01-30T08:54:42.611Z,5.26
2019-01-30T08:57:13.715Z,5.23
2019-01-30T08:59:44.743Z,5.36
2019-01-30T09:02:15.784Z,5.50
2019-01-30T09:04:46.882Z,5.54
2019-01-30T09:07:17.806Z,5.44
2019-01-30T09:09:48.840Z,5.49
2019-01-30T09:12:20.270Z,5.52
2019-01-30T09:14:52.087Z,5.78
2019-01-30T09:17:23.682Z,6.10
2019-01-30T09:19:54.366Z,6.57
2019-01-30T09:22:25.043Z,7.12
2019-01-30T09:24:56.173Z,7.13
2019-01-30T09:27:27.228Z,6.40
2019-01-30T09:29:57.956Z,6.18
2019-01-30T09:32:28.873Z,6.13
2019-01-30T09:35:00.238Z,6.00
2019-01-30T09:37:31.748Z,6.25
2019-01-30T09:40:02.787Z,6.58
2019-01-30T09:42:33.891Z,6.70
2019-01-30T09:45:05.629Z,6.41
2019-01-30T09:47:36.263Z,6.14
2019-01-30T09:50:11.141Z,6.30
2019-01-30T09:52:42.458Z,6.34
2019-01-30T09:55:14.558Z,6.11
2019-01-30T09:57:45.032Z,6.66
2019-01-30T10:00:28.800Z,6.24
2019-01-30T10:03:01.042Z,6.47
2019-01-30T10:05:31.788Z,6.25
2019-01-30T10:08:02.391Z,6.17
2019-01-30T10:10:35.268Z,5.95
2019-01-30T10:13:07.432Z,5.80
2019-01-30T10:15:40.815Z,5.87
2019-01-30T10:18:14.061Z,5.74
2019-01-30T10:20:47.237Z,5.85
2019-01-30T10:23:18.460Z,5.77
2019-01-30T10:25:49.526Z,5.79
2019-01-30T10:28:21.199Z,5.79
2019-01-30T10:30:52.747Z,5.63
2019-01-30T10:33:23.125Z,5.69
2019-01-30T10:35:54.241Z,5.68
2019-01-30T10:38:24.619Z,5.79
2019-01-30T10:40:56.354Z,5.56
2019-01-30T10:43:27.642Z,5.62
2019-01-30T10:45:58.669Z,5.57
2019-01-30T10:48:29.767Z,5.39
2019-01-30T10:51:00.853Z,5.41
2019-01-30T10:53:31.896Z,5.40
2019-01-30T10:56:02.515Z,5.53
2019-01-30T10:58:33.196Z,5.54
2019-01-30T11:01:05.393Z,5.76
2019-01-30T11:03:36.734Z,5.78
2019-01-30T11:06:07.809Z,6.03
2019-01-30T11:08:38.543Z,6.01
2019-01-30T11:11:09.336Z,5.91
2019-01-30T11:13:40.122Z,5.85
2019-01-30T11:16:11.851Z,5.77
2019-01-30T11:18:42.866Z,5.66
2019-01-30T11:21:13.222Z,5.54
2019-01-30T11:23:44.267Z,5.58
2019-01-30T11:26:14.643Z,6.02
2019-01-30T11:28:45.238Z,6.07
2019-01-30T11:31:16.973Z,6.14
2019-01-30T11:33:48.221Z,6.30
2019-01-30T11:36:19.567Z,5.92
2019-01-30T11:38:50.275Z,5.92
2019-01-30T11:41:21.390Z,6.02
2019-01-30T11:43:54.025Z,6.02
2019-01-30T11:46:25.120Z,5.83
2019-01-30T11:48:56.816Z,5.92
2019-01-30T11:51:28.404Z,6.36
2019-01-30T11:53:59.540Z,6.28
2019-01-30T11:56:30.315Z,6.36
2019-01-30T11:59:01.731Z,6.49
2019-01-30T12:01:32.655Z,6.35
2019-01-30T12:04:03.599Z,5.86
2019-01-30T12:06:35.058Z,6.31
2019-01-30T12:09:08.631Z,6.55
2019-01-30T12:11:39.300Z,6.54
2019-01-30T12:14:09.651Z,6.54
2019-01-30T12:16:41.018Z,6.59
2019-01-30T12:19:11.764Z,6.19
2019-01-30T12:21:42.422Z,6.64
2019-01-30T12:24:13.845Z,6.02
2019-01-30T12:26:44.506Z,6.27
2019-01-30T12:29:17.177Z,6.73
2019-01-30T12:31:48.257Z,6.58
2019-01-30T12:34:28.057Z,6.67
2019-01-30T12:36:51.723Z,6.37
2019-01-30T12:39:22.120Z,5.67
2019-01-30T12:41:53.101Z,5.51
2019-01-30T12:44:23.791Z,5.53
2019-01-30T12:46:54.454Z,5.19
2019-01-30T12:49:25.636Z,5.08
2019-01-30T12:51:56.326Z,5.10
2019-01-30T12:54:26.951Z,5.04
2019-01-30T12:56:59.668Z,5.23
2019-01-30T12:59:30.372Z,5.72
2019-01-30T13:02:01.803Z,6.24
2019-01-30T13:04:38.831Z,6.47
2019-01-30T13:07:05.963Z,6.31
2019-01-30T13:09:36.324Z,6.22
2019-01-30T13:12:07.757Z,6.33
2019-01-30T13:14:38.817Z,6.25
2019-01-30T13:17:09.122Z,6.70
2019-01-30T13:19:39.813Z,6.90
2019-01-30T13:22:10.133Z,6.23
2019-01-30T13:24:40.505Z,6.39
2019-01-30T13:27:10.857Z,6.31
2019-01-30T13:29:42.118Z,5.74
2019-01-30T13:32:12.791Z,6.12
2019-01-30T13:34:48.940Z,5.82
2019-01-30T13:37:16.588Z,5.60
2019-01-30T13:39:48.215Z,5.64
2019-01-30T13:42:18.887Z,5.54
2019-01-30T13:44:49.584Z,5.65
2019-01-30T13:47:20.923Z,5.67
2019-01-30T13:49:51.931Z,5.58
2019-01-30T13:52:22.889Z,5.57
2019-01-30T13:54:53.622Z,5.53
2019-01-30T13:57:24.618Z,5.27
2019-01-30T13:59:54.932Z,5.42
2019-01-30T14:02:26.004Z,5.71
2019-01-30T14:04:59.496Z,5.65
2019-01-30T14:07:29.823Z,5.58
2019-01-30T14:10:01.528Z,5.34
2019-01-30T14:12:32.695Z,5.58
2019-01-30T14:15:03.159Z,5.47
2019-01-30T14:17:33.920Z,5.32
2019-01-30T14:20:05.155Z,5.58
2019-01-30T14:22:35.477Z,5.63
2019-01-30T14:25:07.439Z,5.69
2019-01-30T14:27:38.585Z,5.87
2019-01-30T14:30:16.302Z,5.48
2019-01-30T14:32:47.232Z,5.32
2019-01-30T14:35:29.866Z,5.12
2019-01-30T14:38:00.551Z,5.41
2019-01-30T14:40:31.869Z,4.86
2019-01-30T14:43:03.286Z,5.01
2019-01-30T14:45:34.257Z,5.03
2019-01-30T14:48:04.886Z,5.14
2019-01-30T14:51:19.056Z,5.06
2019-01-30T14:53:50.354Z,4.89
2019-01-30T14:56:41.156Z,5.23
2019-01-30T14:59:12.461Z,4.97
2019-01-30T15:01:43.155Z,4.76
2019-01-30T15:04:14.864Z,4.76
2019-01-30T15:06:45.610Z,4.71
2019-01-30T15:09:16.288Z,4.46
2019-01-30T15:11:47.037Z,4.49
2019-01-30T15:14:21.376Z,4.48
2019-01-30T15:16:52.770Z,4.48
2019-01-30T15:19:29.408Z,4.38
2019-01-30T15:22:02.720Z,4.21
2019-01-30T15:24:33.727Z,4.02
2019-01-30T15:27:04.889Z,3.94
2019-01-30T15:29:36.635Z,3.93
2019-01-30T15:32:07.208Z,3.93
2019-01-30T15:34:38.999Z,3.87
2019-01-30T15:37:09.887Z,3.86
2019-01-30T15:39:40.957Z,3.87
2019-01-30T15:42:15.902Z,3.84
2019-01-30T15:44:57.385Z,3.82
2019-01-30T15:47:31.000Z,3.98
2019-01-30T15:50:01.692Z,3.83
2019-01-30T15:52:48.995Z,3.81
2019-01-30T15:55:20.072Z,3.72
2019-01-30T15:58:00.927Z,3.72
2019-01-30T16:01:05.219Z,3.74
2019-01-30T16:03:43.808Z,3.59
2019-01-30T16:06:15.334Z,3.62
2019-01-30T16:08:48.682Z,3.50
2019-01-30T16:11:35.206Z,3.39
2019-01-30T16:14:05.538Z,3.34
2019-01-30T16:16:36.672Z,3.38
2019-01-30T16:19:07.778Z,3.21
2019-01-30T16:21:45.979Z,3.22
2019-01-30T16:24:16.302Z,3.22
2019-01-30T16:26:47.723Z,3.25
2019-01-30T16:29:18.904Z,3.18
2019-01-30T16:32:00.106Z,3.21
2019-01-30T16:34:31.209Z,3.05
2019-01-30T16:37:02.559Z,3.10
2019-01-30T16:39:32.874Z,3.19
2019-01-30T16:42:04.556Z,3.22
2019-01-30T16:44:35.594Z,3.08
2019-01-30T16:47:05.888Z,3.11
2019-01-30T16:49:36.861Z,2.99
2019-01-30T16:52:09.267Z,2.88
2019-01-30T16:54:40.342Z,2.84
2019-01-30T16:57:11.321Z,2.85
2019-01-30T16:59:42.039Z,2.96
2019-01-30T17:02:32.289Z,2.91
2019-01-30T17:05:03.789Z,2.84
2019-01-30T17:07:34.112Z,2.86
2019-01-30T17:10:08.937Z,2.72
2019-01-30T17:12:39.670Z,2.71
2019-01-30T17:15:20.759Z,2.67
2019-01-30T17:17:51.045Z,2.54
2019-01-30T17:20:24.597Z,2.59
2019-01-30T17:22:56.176Z,2.61
2019-01-30T17:25:27.031Z,2.69
2019-01-30T17:27:57.899Z,2.78
2019-01-30T17:30:43.058Z,2.78
2019-01-30T17:33:14.096Z,2.63
2019-01-30T17:35:47.000Z,2.44
2019-01-30T17:38:17.641Z,2.41
2019-01-30T17:40:48.065Z,2.47
2019-01-30T17:43:18.368Z,2.40
2019-01-30T17:45:49.422Z,2.37
2019-01-30T17:48:20.085Z,2.43
2019-01-30T17:50:51.075Z,2.25
2019-01-30T17:53:22.139Z,2.08
2019-01-30T17:55:53.471Z,2.14
2019-01-30T17:58:24.186Z,2.04
2019-01-30T18:01:00.666Z,1.91
2019-01-30T18:03:31.324Z,1.82
2019-01-30T18:06:01.624Z,1.80
2019-01-30T18:08:32.356Z,1.99
2019-01-30T18:11:03.642Z,1.94
2019-01-30T18:13:53.810Z,1.76
2019-01-30T18:16:26.872Z,1.55
2019-01-30T18:18:58.405Z,1.45
2019-01-30T18:21:32.074Z,1.35
2019-01-30T18:24:02.524Z,1.27
2019-01-30T18:26:33.508Z,1.13
2019-01-30T18:29:04.553Z,1.05
2019-01-30T18:31:36.827Z,1.02
2019-01-30T18:34:07.183Z,0.83
2019-01-30T18:36:41.108Z,0.63
2019-01-30T18:39:11.506Z,0.46
2019-01-30T18:41:42.254Z,0.32
2019-01-30T18:44:30.946Z,0.11
2019-01-30T18:47:06.048Z,-0.11
2019-01-30T18:49:46.012Z,-0.25
2019-01-30T18:52:32.392Z,-0.45
2019-01-30T18:55:03.749Z,-0.47
2019-01-30T18:57:34.938Z,-0.48
2019-01-30T19:00:10.614Z,-0.46
2019-01-30T19:02:51.499Z,-0.40
2019-01-30T19:05:24.410Z,-0.43
2019-01-30T19:07:55.080Z,-0.49
2019-01-30T19:10:26.484Z,-0.56
2019-01-30T19:12:57.191Z,-0.72
2019-01-30T19:15:28.168Z,-0.83
2019-01-30T19:17:59.628Z,-0.82
2019-01-30T19:20:34.145Z,-0.75
2019-01-30T19:23:07.080Z,-0.81
2019-01-30T19:25:37.672Z,-0.83
2019-01-30T19:28:09.181Z,-0.85
2019-01-30T19:30:45.280Z,-0.83
2019-01-30T19:33:16.697Z,-0.90
2019-01-30T19:35:55.830Z,-0.92
2019-01-30T19:38:27.162Z,-0.99
2019-01-30T19:40:58.253Z,-1.07
2019-01-30T19:43:32.220Z,-1.08
2019-01-30T19:46:03.911Z,-1.09
2019-01-30T19:48:41.944Z,-0.95
2019-01-30T19:51:20.758Z,-0.84
2019-01-30T19:53:59.639Z,-0.58
2019-01-30T19:56:42.136Z,-0.61
2019-01-30T19:59:23.588Z,-0.67
2019-01-30T20:02:02.235Z,-0.46
2019-01-30T20:04:40.898Z,-0.36
2019-01-30T20:07:25.473Z,-0.36
2019-01-30T20:10:28.689Z,-0.57
2019-01-30T20:13:03.811Z,-0.76
2019-01-30T20:15:39.562Z,-0.83
2019-01-30T20:18:23.873Z,-0.88
2019-01-30T20:21:06.659Z,-0.87
2019-01-30T20:23:49.254Z,-0.84
2019-01-30T20:26:33.645Z,-0.73
2019-01-30T20:29:09.391Z,-0.65
2019-01-30T20:31:54.878Z,-0.62
2019-01-30T20:34:32.846Z,-0.56
2019-01-30T20:37:12.446Z,-0.50
2019-01-30T20:39:46.889Z,-0.47
2019-01-30T20:42:22.271Z,-0.40
2019-01-30T20:44:57.498Z,-0.35
2019-01-30T20:47:47.948Z,-0.31
2019-01-30T20:50:55.423Z,-0.25
2019-01-30T20:53:42.623Z,-0.24
2019-01-30T20:56:15.351Z,-0.21
2019-01-30T20:58:53.497Z,-0.07
2019-01-30T21:01:26.177Z,0.06
2019-01-30T21:03:59.196Z,0.02
2019-01-30T21:06:39.916Z,0.05
2019-01-30T21:09:24.886Z,-0.01
2019-01-30T21:12:45.602Z,-0.03
2019-01-30T21:15:35.819Z,-0.01
2019-01-30T21:18:19.678Z,0.08
2019-01-30T21:20:56.756Z,-0.02
2019-01-30T21:23:45.822Z,-0.07
2019-01-30T21:26:27.483Z,-0.21
2019-01-30T21:29:11.772Z,-0.29
2019-01-30T21:32:04.059Z,-0.30
2019-01-30T21:34:37.484Z,-0.37
2019-01-30T21:37:34.006Z,-0.44
2019-01-30T21:40:15.414Z,-0.49
2019-01-30T21:43:17.817Z,-0.52
2019-01-30T21:45:59.856Z,-0.59
2019-01-30T21:48:39.937Z,-0.35
2019-01-30T21:51:24.605Z,-0.19
2019-01-30T21:54:00.932Z,-0.29
2019-01-30T21:56:33.242Z,-0.38
2019-01-30T21:59:12.640Z,-0.48
2019-01-30T22:01:50.506Z,-0.53
2019-01-30T22:04:33.699Z,-0.49
2019-01-30T22:07:05.150Z,-0.49
2019-01-30T22:09:37.847Z,-0.54
2019-01-30T22:12:21.317Z,-0.48
2019-01-30T22:15:01.538Z,-0.55
2019-01-30T22:17:36.636Z,-0.61
2019-01-30T22:20:12.966Z,-0.64
2019-01-30T22:22:46.588Z,-0.66
2019-01-30T22:25:24.573Z,-0.64
2019-01-30T22:27:55.746Z,-0.72
2019-01-30T22:30:35.288Z,-0.78
2019-01-30T22:33:07.210Z,-0.85
2019-01-30T22:35:41.820Z,-0.90
2019-01-30T22:38:13.117Z,-1.00
2019-01-30T22:40:44.407Z,-1.11
2019-01-30T22:43:15.861Z,-1.24
2019-01-30T22:45:46.538Z,-1.31
2019-01-30T22:48:17.854Z,-1.37
2019-01-30T22:50:48.167Z,-1.47
2019-01-30T22:53:19.186Z,-1.63
2019-01-30T22:55:49.820Z,-1.80
2019-01-30T22:58:21.537Z,-1.99
2019-01-30T23:01:47.086Z,-2.16
2019-01-30T23:05:16.222Z,-2.27
2019-01-30T23:08:29.650Z,-2.16
2019-01-30T23:11:38.248Z,-2.15
2019-01-30T23:14:21.451Z,-2.32
2019-01-30T23:17:28.195Z,-2.43
2019-01-30T23:20:54.450Z,-2.45
2019-01-30T23:24:34.336Z,-2.28
2019-01-30T23:27:32.217Z,-2.38
2019-01-30T23:30:54.754Z,-2.37
2019-01-30T23:34:43.800Z,-2.38
2019-01-30T23:37:41.143Z,-2.40
2019-01-30T23:40:32.092Z,-2.35
2019-01-30T23:43:59.419Z,-2.40
2019-01-30T23:47:23.823Z,-2.49
2019-01-30T23:50:45.968Z,-2.57
2019-01-30T23:54:11.565Z,-2.63
2019-01-30T23:57:36.801Z,-2.67
